Ghanzi, Botswana
Current Conditions -  °F | °C
As of 7:00 PM on Tuesday 21 Oct 2014 (Local Time) from FBMN Reporting Station
Clear Clear  
Wind Chill: 34°   Ceiling: Unl
Heat Index: 34°   Visibility: 6mi
Dew Point: -3°   Wind: 8mph
Humidity: 9%   Direction: 110°ESE
Pressure: 29.97"   Gusts: NA
Location:  21.7°S, 21.64°E
Report Text: FBMN 211700Z 11007KT CAVOK 34/M03 Q1015
Loading
Personal Weather Stations






























Interactive Weather Map
Tropical Storm Tracking
New forecast layout! Learn more

10-Day Weather Forecast

Advertisements
Track Severe Weather on mobile